Список аэропортов
Фактическая погода:

02 мая, 14:30
Температура: +25°C (+25.0*)
Ветер: сев.-восточный 6 м/с
Давление: *762 мм
Без существ. явл.
Время (МСК)Темп. СВетерВлажностьДавлениеОблачностьОсадки
15:00+19В, 4 м/с43%1018 гПаоблачно
16:00+19В, 1 м/с43%1018 гПаоблачно
17:00+17З, 4 м/с55%1018 гПаоблачно
18:00+16З, 5 м/с62%1018 гПас прояснениями
19:00+16З, 4 м/с63%1018 гПас прояснениями
20:00+15З, 3 м/с66%1018 гПаясно
21:00+13З, 2 м/с76%1018 гПаясно
22:00+12ЮЗ, 2 м/с85%1018 гПаясно
23:00+11Ю, 2 м/с92%1018 гПаясно
25 мая
00:00+10Ю, 2 м/с95%1018 гПаясно
01:00+9ЮВ, 2 м/с97%1018 гПаясно
02:00+9ЮВ, 2 м/с96%1018 гПаясно
03:00+8ЮВ, 2 м/с95%1018 гПаясно
04:00+8ЮВ, 3 м/с95%1018 гПаясно
05:00+7ЮВ, 3 м/с95%1018 гПаясно
06:00+8ЮВ, 3 м/с93%1018 гПаясно
07:00+10ЮВ, 2 м/с81%1017 гПаясно
08:00+15В, 3 м/с61%1017 гПаясно
09:00+17В, 3 м/с52%1017 гПаясно
10:00+18ЮВ, 2 м/с50%1017 гПаясно
11:00+19ЮВ, 2 м/с47%1017 гПас прояснениями
12:00+20ЮВ, 2 м/с45%1016 гПас прояснениями
13:00+21Ю, 2 м/с42%1016 гПас прояснениями
14:00+21З, 3 м/с43%1016 гПаоблачно
15:00+19З, 6 м/с51%1016 гПаоблачно
16:00+19З, 5 м/с55%1016 гПаоблачно
17:00+18З, 5 м/с57%1016 гПаоблачно
18:00+17СЗ, 5 м/с61%1016 гПаоблачно
19:00+16СЗ, 4 м/с64%1016 гПас прояснениями
20:00+14З, 3 м/с68%1016 гПамалооблачно
21:00+13З, 2 м/с76%1017 гПаясно
22:00+12З, 1 м/с87%1017 гПаясно
23:00+10Штиль 96%1017 гПаясно
26 мая
00:00+9Штиль 98%1017 гПаясно
01:00+9СВ, 1 м/с99%1017 гПамалооблачно
02:00+9В, 2 м/с98%1017 гПамалооблачно
03:00+8В, 2 м/с98%1016 гПамалооблачно
04:00+8ЮВ, 2 м/с98%1016 гПамалооблачно
05:00+7ЮВ, 3 м/с97%1016 гПаясно
06:00+8В, 3 м/с95%1016 гПаясно
07:00+11В, 3 м/с83%1015 гПаясно
08:00+14СВ, 4 м/с71%1015 гПаясно
09:00+17СВ, 3 м/с57%1015 гПаясно
10:00+19СВ, 2 м/с47%1014 гПаясно
11:00+20С, 1 м/с42%1014 гПаясно
12:00+21СЗ, 2 м/с39%1014 гПаясно
13:00+22СЗ, 3 м/с37%1014 гПаясно
14:00+23З, 5 м/с38%1013 гПаясно
15:00+21З, 7 м/с42%1013 гПамалооблачно